sensor_id;sensor_type;location;lat;lon;timestamp;temperature;humidity
13268;DHT22;6702;47.068;15.458;2023-04-29T00:01:11;13.20;99.90
13268;DHT22;6702;47.068;15.458;2023-04-29T00:04:19;13.20;99.90
13268;DHT22;6702;47.068;15.458;2023-04-29T00:07:31;13.10;99.90
13268;DHT22;6702;47.068;15.458;2023-04-29T00:10:37;13.00;99.90
13268;DHT22;6702;47.068;15.458;2023-04-29T00:13:45;13.00;99.90
13268;DHT22;6702;47.068;15.458;2023-04-29T00:16:56;13.00;99.90
13268;DHT22;6702;47.068;15.458;2023-04-29T00:20:01;12.90;99.90
13268;DHT22;6702;47.068;15.458;2023-04-29T00:23:08;12.90;99.90
13268;DHT22;6702;47.068;15.458;2023-04-29T00:26:14;12.60;99.90
13268;DHT22;6702;47.068;15.458;2023-04-29T00:29:20;12.50;99.90
13268;DHT22;6702;47.068;15.458;2023-04-29T00:32:29;12.40;99.90
13268;DHT22;6702;47.068;15.458;2023-04-29T00:35:33;12.40;99.90
13268;DHT22;6702;47.068;15.458;2023-04-29T00:38:40;12.50;99.90
13268;DHT22;6702;47.068;15.458;2023-04-29T00:41:44;12.50;99.90
13268;DHT22;6702;47.068;15.458;2023-04-29T00:44:50;12.50;99.90
13268;DHT22;6702;47.068;15.458;2023-04-29T00:47:56;12.50;99.90
13268;DHT22;6702;47.068;15.458;2023-04-29T00:51:01;12.50;99.90
13268;DHT22;6702;47.068;15.458;2023-04-29T00:54:07;12.60;99.90
13268;DHT22;6702;47.068;15.458;2023-04-29T00:57:21;12.50;99.90
13268;DHT22;6702;47.068;15.458;2023-04-29T01:00:38;12.40;99.90
13268;DHT22;6702;47.068;15.458;2023-04-29T01:03:49;12.40;99.90
13268;DHT22;6702;47.068;15.458;2023-04-29T01:07:00;12.30;99.90
13268;DHT22;6702;47.068;15.458;2023-04-29T01:10:14;12.20;99.90
13268;DHT22;6702;47.068;15.458;2023-04-29T01:13:33;12.10;99.90
13268;DHT22;6702;47.068;15.458;2023-04-29T01:16:49;12.00;99.90
13268;DHT22;6702;47.068;15.458;2023-04-29T01:20:01;12.00;99.90
13268;DHT22;6702;47.068;15.458;2023-04-29T01:23:06;12.10;99.90
13268;DHT22;6702;47.068;15.458;2023-04-29T01:26:28;12.10;99.90
13268;DHT22;6702;47.068;15.458;2023-04-29T01:29:44;12.00;99.90
13268;DHT22;6702;47.068;15.458;2023-04-29T01:33:00;12.10;99.90
13268;DHT22;6702;47.068;15.458;2023-04-29T01:36:15;12.10;99.90
13268;DHT22;6702;47.068;15.458;2023-04-29T01:39:34;12.20;99.90
13268;DHT22;6702;47.068;15.458;2023-04-29T01:42:52;12.30;99.90
13268;DHT22;6702;47.068;15.458;2023-04-29T01:46:05;12.30;99.90
13268;DHT22;6702;47.068;15.458;2023-04-29T01:49:13;12.30;99.90
13268;DHT22;6702;47.068;15.458;2023-04-29T01:52:17;12.30;99.90
13268;DHT22;6702;47.068;15.458;2023-04-29T01:55:22;12.30;99.90
13268;DHT22;6702;47.068;15.458;2023-04-29T01:58:28;12.30;99.90
13268;DHT22;6702;47.068;15.458;2023-04-29T02:01:33;12.30;99.90
13268;DHT22;6702;47.068;15.458;2023-04-29T02:04:42;12.30;99.90
13268;DHT22;6702;47.068;15.458;2023-04-29T02:07:47;12.30;99.90
13268;DHT22;6702;47.068;15.458;2023-04-29T02:10:51;12.40;99.90
13268;DHT22;6702;47.068;15.458;2023-04-29T02:13:58;12.40;99.90
13268;DHT22;6702;47.068;15.458;2023-04-29T02:17:02;12.40;99.90
13268;DHT22;6702;47.068;15.458;2023-04-29T02:20:08;12.40;99.90
13268;DHT22;6702;47.068;15.458;2023-04-29T02:23:21;12.50;99.90
13268;DHT22;6702;47.068;15.458;2023-04-29T02:26:25;12.50;99.90
13268;DHT22;6702;47.068;15.458;2023-04-29T02:29:44;12.50;99.90
13268;DHT22;6702;47.068;15.458;2023-04-29T02:32:49;12.50;99.90
13268;DHT22;6702;47.068;15.458;2023-04-29T02:35:53;12.40;99.90
13268;DHT22;6702;47.068;15.458;2023-04-29T02:38:57;12.30;99.90
13268;DHT22;6702;47.068;15.458;2023-04-29T02:42:03;12.30;99.90
13268;DHT22;6702;47.068;15.458;2023-04-29T02:45:18;12.20;99.90
13268;DHT22;6702;47.068;15.458;2023-04-29T02:48:23;12.20;99.90
13268;DHT22;6702;47.068;15.458;2023-04-29T02:51:28;12.10;99.90
13268;DHT22;6702;47.068;15.458;2023-04-29T02:54:34;12.00;99.90
13268;DHT22;6702;47.068;15.458;2023-04-29T02:57:42;12.00;99.90
13268;DHT22;6702;47.068;15.458;2023-04-29T03:00:51;12.00;99.90
13268;DHT22;6702;47.068;15.458;2023-04-29T03:03:56;11.90;99.90
13268;DHT22;6702;47.068;15.458;2023-04-29T03:07:02;11.90;99.90
13268;DHT22;6702;47.068;15.458;2023-04-29T03:10:08;11.90;99.90
13268;DHT22;6702;47.068;15.458;2023-04-29T03:13:18;11.90;99.90
13268;DHT22;6702;47.068;15.458;2023-04-29T03:16:36;11.80;99.90
13268;DHT22;6702;47.068;15.458;2023-04-29T03:19:45;11.80;99.90
13268;DHT22;6702;47.068;15.458;2023-04-29T03:22:50;11.60;99.90
13268;DHT22;6702;47.068;15.458;2023-04-29T03:25:54;11.70;99.90
13268;DHT22;6702;47.068;15.458;2023-04-29T03:28:59;11.60;99.90
13268;DHT22;6702;47.068;15.458;2023-04-29T03:32:05;11.50;99.90
13268;DHT22;6702;47.068;15.458;2023-04-29T03:35:09;11.50;99.90
13268;DHT22;6702;47.068;15.458;2023-04-29T03:38:18;11.50;99.90
13268;DHT22;6702;47.068;15.458;2023-04-29T03:41:25;11.60;99.90
13268;DHT22;6702;47.068;15.458;2023-04-29T03:44:33;11.50;99.90
13268;DHT22;6702;47.068;15.458;2023-04-29T03:47:51;11.40;99.90
13268;DHT22;6702;47.068;15.458;2023-04-29T03:50:56;11.40;99.90
13268;DHT22;6702;47.068;15.458;2023-04-29T03:54:01;11.40;99.90
13268;DHT22;6702;47.068;15.458;2023-04-29T03:57:09;11.40;99.90
13268;DHT22;6702;47.068;15.458;2023-04-29T04:00:20;11.50;99.90
13268;DHT22;6702;47.068;15.458;2023-04-29T04:03:30;11.50;99.90
13268;DHT22;6702;47.068;15.458;2023-04-29T04:06:36;11.50;99.90
13268;DHT22;6702;47.068;15.458;2023-04-29T04:09:45;11.50;99.90
13268;DHT22;6702;47.068;15.458;2023-04-29T04:12:50;11.50;99.90
13268;DHT22;6702;47.068;15.458;2023-04-29T04:15:59;11.50;99.90
13268;DHT22;6702;47.068;15.458;2023-04-29T04:19:16;11.50;99.90
13268;DHT22;6702;47.068;15.458;2023-04-29T04:22:21;11.60;99.90
13268;DHT22;6702;47.068;15.458;2023-04-29T04:25:24;11.70;99.90
13268;DHT22;6702;47.068;15.458;2023-04-29T04:28:34;11.70;99.90
13268;DHT22;6702;47.068;15.458;2023-04-29T04:31:39;11.80;99.90
13268;DHT22;6702;47.068;15.458;2023-04-29T04:34:44;11.80;99.90
13268;DHT22;6702;47.068;15.458;2023-04-29T04:37:51;11.80;99.90
13268;DHT22;6702;47.068;15.458;2023-04-29T04:40:55;11.90;99.90
13268;DHT22;6702;47.068;15.458;2023-04-29T04:43:59;12.00;99.90
13268;DHT22;6702;47.068;15.458;2023-04-29T04:47:06;12.10;99.90
13268;DHT22;6702;47.068;15.458;2023-04-29T04:50:12;12.20;99.90
13268;DHT22;6702;47.068;15.458;2023-04-29T04:53:32;12.30;99.90
13268;DHT22;6702;47.068;15.458;2023-04-29T04:56:38;12.40;99.90
13268;DHT22;6702;47.068;15.458;2023-04-29T04:59:50;12.40;99.90
13268;DHT22;6702;47.068;15.458;2023-04-29T05:02:55;12.60;99.90
13268;DHT22;6702;47.068;15.458;2023-04-29T05:06:04;12.70;99.90
13268;DHT22;6702;47.068;15.458;2023-04-29T05:09:10;12.90;99.90
13268;DHT22;6702;47.068;15.458;2023-04-29T05:12:17;13.00;99.90
13268;DHT22;6702;47.068;15.458;2023-04-29T05:15:22;13.20;99.90
13268;DHT22;6702;47.068;15.458;2023-04-29T05:18:28;13.50;99.90
13268;DHT22;6702;47.068;15.458;2023-04-29T05:21:34;13.70;99.90
13268;DHT22;6702;47.068;15.458;2023-04-29T05:24:39;13.90;99.90
13268;DHT22;6702;47.068;15.458;2023-04-29T05:27:53;14.30;99.90
13268;DHT22;6702;47.068;15.458;2023-04-29T05:30:58;14.80;99.90
13268;DHT22;6702;47.068;15.458;2023-04-29T05:34:02;15.20;99.90
13268;DHT22;6702;47.068;15.458;2023-04-29T05:37:09;15.60;99.90
13268;DHT22;6702;47.068;15.458;2023-04-29T05:40:16;15.70;99.90
13268;DHT22;6702;47.068;15.458;2023-04-29T05:43:26;16.00;99.90
13268;DHT22;6702;47.068;15.458;2023-04-29T05:46:31;16.30;99.90
13268;DHT22;6702;47.068;15.458;2023-04-29T05:49:39;16.50;99.90
13268;DHT22;6702;47.068;15.458;2023-04-29T05:52:45;16.40;99.90
13268;DHT22;6702;47.068;15.458;2023-04-29T05:55:57;16.50;99.90
13268;DHT22;6702;47.068;15.458;2023-04-29T05:59:02;16.50;99.90
13268;DHT22;6702;47.068;15.458;2023-04-29T06:02:09;16.40;99.90
13268;DHT22;6702;47.068;15.458;2023-04-29T06:05:14;16.40;99.90
13268;DHT22;6702;47.068;15.458;2023-04-29T06:08:20;16.30;99.90
13268;DHT22;6702;47.068;15.458;2023-04-29T06:11:29;16.10;99.90
13268;DHT22;6702;47.068;15.458;2023-04-29T06:14:34;16.10;99.90
13268;DHT22;6702;47.068;15.458;2023-04-29T06:17:38;16.10;99.90
13268;DHT22;6702;47.068;15.458;2023-04-29T06:20:47;16.20;99.90
13268;DHT22;6702;47.068;15.458;2023-04-29T06:23:56;16.30;99.90
13268;DHT22;6702;47.068;15.458;2023-04-29T06:27:01;16.50;99.90
13268;DHT22;6702;47.068;15.458;2023-04-29T06:30:07;17.00;99.90
13268;DHT22;6702;47.068;15.458;2023-04-29T06:33:21;17.30;99.40
13268;DHT22;6702;47.068;15.458;2023-04-29T06:36:32;17.60;98.90
13268;DHT22;6702;47.068;15.458;2023-04-29T06:39:39;18.00;98.30
13268;DHT22;6702;47.068;15.458;2023-04-29T06:42:45;18.60;97.30
13268;DHT22;6702;47.068;15.458;2023-04-29T06:45:49;19.30;96.60
13268;DHT22;6702;47.068;15.458;2023-04-29T06:48:54;20.20;94.40
13268;DHT22;6702;47.068;15.458;2023-04-29T06:52:00;20.70;92.80
13268;DHT22;6702;47.068;15.458;2023-04-29T06:55:08;21.30;91.70
13268;DHT22;6702;47.068;15.458;2023-04-29T06:58:16;21.90;90.80
13268;DHT22;6702;47.068;15.458;2023-04-29T07:01:21;22.50;87.50
13268;DHT22;6702;47.068;15.458;2023-04-29T07:04:26;22.70;85.70
13268;DHT22;6702;47.068;15.458;2023-04-29T07:07:32;22.90;84.20
13268;DHT22;6702;47.068;15.458;2023-04-29T07:10:54;23.40;81.70
13268;DHT22;6702;47.068;15.458;2023-04-29T07:13:59;23.70;79.40
13268;DHT22;6702;47.068;15.458;2023-04-29T07:17:06;24.00;77.40
13268;DHT22;6702;47.068;15.458;2023-04-29T07:20:12;24.60;75.70
13268;DHT22;6702;47.068;15.458;2023-04-29T07:23:18;25.50;71.50
13268;DHT22;6702;47.068;15.458;2023-04-29T07:26:28;25.90;66.60
13268;DHT22;6702;47.068;15.458;2023-04-29T07:29:34;26.80;63.50
13268;DHT22;6702;47.068;15.458;2023-04-29T07:32:40;28.10;58.50
13268;DHT22;6702;47.068;15.458;2023-04-29T07:35:47;28.60;53.90
13268;DHT22;6702;47.068;15.458;2023-04-29T07:38:52;28.50;52.40
13268;DHT22;6702;47.068;15.458;2023-04-29T07:42:04;28.80;50.90
13268;DHT22;6702;47.068;15.458;2023-04-29T07:45:10;29.90;47.90
13268;DHT22;6702;47.068;15.458;2023-04-29T07:48:15;30.80;45.70
13268;DHT22;6702;47.068;15.458;2023-04-29T07:51:24;32.20;43.50
13268;DHT22;6702;47.068;15.458;2023-04-29T07:54:34;32.60;40.00
13268;DHT22;6702;47.068;15.458;2023-04-29T07:57:46;34.10;38.10
13268;DHT22;6702;47.068;15.458;2023-04-29T08:00:51;35.60;34.30
13268;DHT22;6702;47.068;15.458;2023-04-29T08:03:58;36.80;31.80
13268;DHT22;6702;47.068;15.458;2023-04-29T08:07:03;38.20;29.40
13268;DHT22;6702;47.068;15.458;2023-04-29T08:10:09;39.30;27.20
13268;DHT22;6702;47.068;15.458;2023-04-29T08:13:15;40.40;25.60
13268;DHT22;6702;47.068;15.458;2023-04-29T08:16:20;41.10;24.60
13268;DHT22;6702;47.068;15.458;2023-04-29T08:19:26;41.30;23.40
13268;DHT22;6702;47.068;15.458;2023-04-29T08:22:36;41.90;22.50
13268;DHT22;6702;47.068;15.458;2023-04-29T08:25:42;40.00;22.50
13268;DHT22;6702;47.068;15.458;2023-04-29T08:28:48;37.40;23.90
13268;DHT22;6702;47.068;15.458;2023-04-29T08:31:54;34.50;26.40
13268;DHT22;6702;47.068;15.458;2023-04-29T08:34:58;32.30;28.80
13268;DHT22;6702;47.068;15.458;2023-04-29T08:38:05;30.50;31.20
13268;DHT22;6702;47.068;15.458;2023-04-29T08:41:10;28.80;33.50
13268;DHT22;6702;47.068;15.458;2023-04-29T08:44:19;27.60;35.80
13268;DHT22;6702;47.068;15.458;2023-04-29T08:47:23;26.60;38.00
13268;DHT22;6702;47.068;15.458;2023-04-29T08:50:32;25.70;40.40
13268;DHT22;6702;47.068;15.458;2023-04-29T08:53:42;25.20;40.90
13268;DHT22;6702;47.068;15.458;2023-04-29T08:56:48;24.70;41.90
13268;DHT22;6702;47.068;15.458;2023-04-29T08:59:58;24.50;42.70
13268;DHT22;6702;47.068;15.458;2023-04-29T09:03:12;24.40;42.70
13268;DHT22;6702;47.068;15.458;2023-04-29T09:06:22;25.10;43.20
13268;DHT22;6702;47.068;15.458;2023-04-29T09:09:29;26.00;41.10
13268;DHT22;6702;47.068;15.458;2023-04-29T09:12:37;26.30;40.20
13268;DHT22;6702;47.068;15.458;2023-04-29T09:15:50;26.20;39.20
13268;DHT22;6702;47.068;15.458;2023-04-29T09:18:55;26.10;39.40
13268;DHT22;6702;47.068;15.458;2023-04-29T09:22:00;26.20;39.80
13268;DHT22;6702;47.068;15.458;2023-04-29T09:25:15;26.40;39.60
13268;DHT22;6702;47.068;15.458;2023-04-29T09:28:19;26.60;38.70
13268;DHT22;6702;47.068;15.458;2023-04-29T09:31:27;26.70;39.00
13268;DHT22;6702;47.068;15.458;2023-04-29T09:34:32;26.60;38.70
13268;DHT22;6702;47.068;15.458;2023-04-29T09:37:36;26.30;39.30
13268;DHT22;6702;47.068;15.458;2023-04-29T09:40:40;25.80;40.30
13268;DHT22;6702;47.068;15.458;2023-04-29T09:44:03;25.60;41.70
13268;DHT22;6702;47.068;15.458;2023-04-29T09:47:09;25.50;41.20
13268;DHT22;6702;47.068;15.458;2023-04-29T09:50:13;25.20;41.50
13268;DHT22;6702;47.068;15.458;2023-04-29T09:53:28;25.10;41.80
13268;DHT22;6702;47.068;15.458;2023-04-29T09:56:47;25.10;42.00
13268;DHT22;6702;47.068;15.458;2023-04-29T09:59:51;25.20;42.20
13268;DHT22;6702;47.068;15.458;2023-04-29T10:02:58;25.20;42.30
13268;DHT22;6702;47.068;15.458;2023-04-29T10:06:03;25.20;42.40
13268;DHT22;6702;47.068;15.458;2023-04-29T10:09:07;25.00;42.70
13268;DHT22;6702;47.068;15.458;2023-04-29T10:12:17;24.60;43.50
13268;DHT22;6702;47.068;15.458;2023-04-29T10:15:25;24.40;44.20
13268;DHT22;6702;47.068;15.458;2023-04-29T10:18:34;24.70;43.90
13268;DHT22;6702;47.068;15.458;2023-04-29T10:21:39;25.20;42.40
13268;DHT22;6702;47.068;15.458;2023-04-29T10:24:43;25.50;42.20
13268;DHT22;6702;47.068;15.458;2023-04-29T10:27:48;25.60;41.80
13268;DHT22;6702;47.068;15.458;2023-04-29T10:30:55;25.80;41.50
13268;DHT22;6702;47.068;15.458;2023-04-29T10:34:01;26.10;40.60
13268;DHT22;6702;47.068;15.458;2023-04-29T10:37:04;26.00;41.10
13268;DHT22;6702;47.068;15.458;2023-04-29T10:40:11;25.80;41.30
13268;DHT22;6702;47.068;15.458;2023-04-29T10:43:22;25.40;42.00
13268;DHT22;6702;47.068;15.458;2023-04-29T10:46:25;25.20;42.40
13268;DHT22;6702;47.068;15.458;2023-04-29T10:49:34;25.40;42.40
13268;DHT22;6702;47.068;15.458;2023-04-29T10:52:50;25.50;42.20
13268;DHT22;6702;47.068;15.458;2023-04-29T10:55:56;25.50;42.10
13268;DHT22;6702;47.068;15.458;2023-04-29T10:59:00;25.30;42.50
13268;DHT22;6702;47.068;15.458;2023-04-29T11:02:03;25.20;42.40
13268;DHT22;6702;47.068;15.458;2023-04-29T11:05:09;25.00;42.80
13268;DHT22;6702;47.068;15.458;2023-04-29T11:08:18;24.90;42.90
13268;DHT22;6702;47.068;15.458;2023-04-29T11:11:25;24.60;43.80
13268;DHT22;6702;47.068;15.458;2023-04-29T11:14:31;24.20;44.10
13268;DHT22;6702;47.068;15.458;2023-04-29T11:17:35;24.00;44.90
13268;DHT22;6702;47.068;15.458;2023-04-29T11:21:13;23.80;45.00
13268;DHT22;6702;47.068;15.458;2023-04-29T11:24:16;23.70;45.70
13268;DHT22;6702;47.068;15.458;2023-04-29T11:27:21;24.00;46.40
13268;DHT22;6702;47.068;15.458;2023-04-29T11:30:27;24.50;46.40
13268;DHT22;6702;47.068;15.458;2023-04-29T11:33:32;24.20;44.80
13268;DHT22;6702;47.068;15.458;2023-04-29T11:36:36;24.00;45.80
13268;DHT22;6702;47.068;15.458;2023-04-29T11:39:39;24.30;45.40
13268;DHT22;6702;47.068;15.458;2023-04-29T11:42:44;24.40;44.50
13268;DHT22;6702;47.068;15.458;2023-04-29T11:45:48;24.50;45.00
13268;DHT22;6702;47.068;15.458;2023-04-29T11:48:51;24.60;45.30
13268;DHT22;6702;47.068;15.458;2023-04-29T11:51:55;24.60;43.50
13268;DHT22;6702;47.068;15.458;2023-04-29T11:54:59;24.50;43.80
13268;DHT22;6702;47.068;15.458;2023-04-29T11:58:03;24.40;44.00
13268;DHT22;6702;47.068;15.458;2023-04-29T12:01:07;24.10;44.50
13268;DHT22;6702;47.068;15.458;2023-04-29T12:04:10;23.80;45.10
13268;DHT22;6702;47.068;15.458;2023-04-29T12:07:15;23.90;46.90
13268;DHT22;6702;47.068;15.458;2023-04-29T12:10:18;24.00;46.70
13268;DHT22;6702;47.068;15.458;2023-04-29T12:13:23;24.30;46.60
13268;DHT22;6702;47.068;15.458;2023-04-29T12:16:28;24.40;45.90
13268;DHT22;6702;47.068;15.458;2023-04-29T12:19:31;24.30;47.00
13268;DHT22;6702;47.068;15.458;2023-04-29T12:22:36;24.30;46.40
13268;DHT22;6702;47.068;15.458;2023-04-29T12:25:40;24.20;46.80
13268;DHT22;6702;47.068;15.458;2023-04-29T12:28:43;24.20;48.40
13268;DHT22;6702;47.068;15.458;2023-04-29T12:31:47;24.20;47.90
13268;DHT22;6702;47.068;15.458;2023-04-29T12:34:50;24.30;47.30
13268;DHT22;6702;47.068;15.458;2023-04-29T12:37:57;24.10;46.90
13268;DHT22;6702;47.068;15.458;2023-04-29T12:41:01;24.00;44.10
13268;DHT22;6702;47.068;15.458;2023-04-29T12:44:06;24.10;44.20
13268;DHT22;6702;47.068;15.458;2023-04-29T12:47:11;24.30;45.30
13268;DHT22;6702;47.068;15.458;2023-04-29T12:50:15;24.30;42.10
13268;DHT22;6702;47.068;15.458;2023-04-29T12:53:19;24.30;42.10
13268;DHT22;6702;47.068;15.458;2023-04-29T12:56:22;24.40;42.90
13268;DHT22;6702;47.068;15.458;2023-04-29T12:59:27;24.60;41.60
13268;DHT22;6702;47.068;15.458;2023-04-29T13:02:31;24.70;41.80
13268;DHT22;6702;47.068;15.458;2023-04-29T13:05:34;24.80;41.50
13268;DHT22;6702;47.068;15.458;2023-04-29T13:08:38;24.90;41.90
13268;DHT22;6702;47.068;15.458;2023-04-29T13:11:42;25.10;42.30
13268;DHT22;6702;47.068;15.458;2023-04-29T13:14:45;25.10;44.20
13268;DHT22;6702;47.068;15.458;2023-04-29T13:17:49;25.00;42.60
13268;DHT22;6702;47.068;15.458;2023-04-29T13:20:52;25.00;40.90
13268;DHT22;6702;47.068;15.458;2023-04-29T13:23:57;25.00;40.60
13268;DHT22;6702;47.068;15.458;2023-04-29T13:27:00;24.90;41.10
13268;DHT22;6702;47.068;15.458;2023-04-29T13:30:04;24.80;42.30
13268;DHT22;6702;47.068;15.458;2023-04-29T13:33:08;24.60;41.50
13268;DHT22;6702;47.068;15.458;2023-04-29T13:36:14;24.40;41.90
13268;DHT22;6702;47.068;15.458;2023-04-29T13:39:18;24.30;42.40
13268;DHT22;6702;47.068;15.458;2023-04-29T13:42:24;23.90;43.30
13268;DHT22;6702;47.068;15.458;2023-04-29T13:45:28;23.60;44.30
13268;DHT22;6702;47.068;15.458;2023-04-29T13:48:31;23.60;44.30
13268;DHT22;6702;47.068;15.458;2023-04-29T13:51:54;23.50;44.30
13268;DHT22;6702;47.068;15.458;2023-04-29T13:55:18;23.50;44.20
13268;DHT22;6702;47.068;15.458;2023-04-29T13:58:25;23.40;45.00
13268;DHT22;6702;47.068;15.458;2023-04-29T14:01:32;23.30;44.30
13268;DHT22;6702;47.068;15.458;2023-04-29T14:04:38;23.20;45.20
13268;DHT22;6702;47.068;15.458;2023-04-29T14:07:42;22.90;45.80
13268;DHT22;6702;47.068;15.458;2023-04-29T14:10:46;22.70;46.90
13268;DHT22;6702;47.068;15.458;2023-04-29T14:13:49;22.50;48.10
13268;DHT22;6702;47.068;15.458;2023-04-29T14:16:52;22.30;46.70
13268;DHT22;6702;47.068;15.458;2023-04-29T14:19:56;22.10;46.70
13268;DHT22;6702;47.068;15.458;2023-04-29T14:22:59;22.00;48.40
13268;DHT22;6702;47.068;15.458;2023-04-29T14:26:03;21.90;49.10
13268;DHT22;6702;47.068;15.458;2023-04-29T14:29:27;21.80;49.60
13268;DHT22;6702;47.068;15.458;2023-04-29T14:32:30;21.80;47.70
13268;DHT22;6702;47.068;15.458;2023-04-29T14:35:33;21.70;47.50
13268;DHT22;6702;47.068;15.458;2023-04-29T14:38:37;21.60;46.90
13268;DHT22;6702;47.068;15.458;2023-04-29T14:41:41;21.50;48.20
13268;DHT22;6702;47.068;15.458;2023-04-29T14:44:45;21.40;48.90
13268;DHT22;6702;47.068;15.458;2023-04-29T14:47:48;21.30;50.50
13268;DHT22;6702;47.068;15.458;2023-04-29T14:50:51;21.20;52.00
13268;DHT22;6702;47.068;15.458;2023-04-29T14:53:54;21.10;53.30
13268;DHT22;6702;47.068;15.458;2023-04-29T14:56:59;21.10;53.80
13268;DHT22;6702;47.068;15.458;2023-04-29T15:00:03;21.00;54.00
13268;DHT22;6702;47.068;15.458;2023-04-29T15:03:08;21.10;54.40
13268;DHT22;6702;47.068;15.458;2023-04-29T15:06:23;21.20;54.70
13268;DHT22;6702;47.068;15.458;2023-04-29T15:09:28;21.60;53.60
13268;DHT22;6702;47.068;15.458;2023-04-29T15:12:33;21.90;52.40
13268;DHT22;6702;47.068;15.458;2023-04-29T15:15:36;22.20;52.10
13268;DHT22;6702;47.068;15.458;2023-04-29T15:18:39;22.50;50.50
13268;DHT22;6702;47.068;15.458;2023-04-29T15:21:46;22.80;50.20
13268;DHT22;6702;47.068;15.458;2023-04-29T15:24:49;23.00;50.20
13268;DHT22;6702;47.068;15.458;2023-04-29T15:27:55;23.10;50.00
13268;DHT22;6702;47.068;15.458;2023-04-29T15:30:59;23.20;50.80
13268;DHT22;6702;47.068;15.458;2023-04-29T15:34:05;23.20;50.00
13268;DHT22;6702;47.068;15.458;2023-04-29T15:37:08;23.20;47.10
13268;DHT22;6702;47.068;15.458;2023-04-29T15:40:11;23.00;47.20
13268;DHT22;6702;47.068;15.458;2023-04-29T15:43:16;23.00;47.00
13268;DHT22;6702;47.068;15.458;2023-04-29T15:46:19;23.00;46.50
13268;DHT22;6702;47.068;15.458;2023-04-29T15:49:23;23.00;44.70
13268;DHT22;6702;47.068;15.458;2023-04-29T15:52:26;22.80;44.30
13268;DHT22;6702;47.068;15.458;2023-04-29T15:55:29;22.60;44.20
13268;DHT22;6702;47.068;15.458;2023-04-29T15:58:37;22.40;45.30
13268;DHT22;6702;47.068;15.458;2023-04-29T16:01:40;22.20;44.70
13268;DHT22;6702;47.068;15.458;2023-04-29T16:04:43;22.00;44.70
13268;DHT22;6702;47.068;15.458;2023-04-29T16:07:46;21.90;44.40
13268;DHT22;6702;47.068;15.458;2023-04-29T16:10:49;21.90;44.70
13268;DHT22;6702;47.068;15.458;2023-04-29T16:13:54;21.80;44.60
13268;DHT22;6702;47.068;15.458;2023-04-29T16:16:57;21.70;44.30
13268;DHT22;6702;47.068;15.458;2023-04-29T16:20:00;21.70;45.10
13268;DHT22;6702;47.068;15.458;2023-04-29T16:23:04;21.80;45.10
13268;DHT22;6702;47.068;15.458;2023-04-29T16:26:07;21.80;45.50
13268;DHT22;6702;47.068;15.458;2023-04-29T16:29:12;21.80;45.90
13268;DHT22;6702;47.068;15.458;2023-04-29T16:32:15;21.70;44.80
13268;DHT22;6702;47.068;15.458;2023-04-29T16:35:19;21.60;44.50
13268;DHT22;6702;47.068;15.458;2023-04-29T16:38:26;21.50;45.10
13268;DHT22;6702;47.068;15.458;2023-04-29T16:41:29;21.50;45.70
13268;DHT22;6702;47.068;15.458;2023-04-29T16:44:37;21.40;45.20
13268;DHT22;6702;47.068;15.458;2023-04-29T16:47:40;21.30;45.80
13268;DHT22;6702;47.068;15.458;2023-04-29T16:50:43;21.20;46.10
13268;DHT22;6702;47.068;15.458;2023-04-29T16:53:46;21.10;46.40
13268;DHT22;6702;47.068;15.458;2023-04-29T16:56:50;21.10;46.70
13268;DHT22;6702;47.068;15.458;2023-04-29T16:59:54;21.00;47.00
13268;DHT22;6702;47.068;15.458;2023-04-29T17:02:58;21.00;46.90
13268;DHT22;6702;47.068;15.458;2023-04-29T17:06:01;20.90;47.10
13268;DHT22;6702;47.068;15.458;2023-04-29T17:09:06;20.90;47.70
13268;DHT22;6702;47.068;15.458;2023-04-29T17:12:09;20.80;47.20
13268;DHT22;6702;47.068;15.458;2023-04-29T17:15:14;20.80;47.80
13268;DHT22;6702;47.068;15.458;2023-04-29T17:18:18;20.80;47.90
13268;DHT22;6702;47.068;15.458;2023-04-29T17:21:21;20.70;48.30
13268;DHT22;6702;47.068;15.458;2023-04-29T17:24:26;20.70;48.60
13268;DHT22;6702;47.068;15.458;2023-04-29T17:27:30;20.70;48.60
13268;DHT22;6702;47.068;15.458;2023-04-29T17:30:35;20.60;48.30
13268;DHT22;6702;47.068;15.458;2023-04-29T17:33:38;20.50;48.50
13268;DHT22;6702;47.068;15.458;2023-04-29T17:36:45;20.50;48.80
13268;DHT22;6702;47.068;15.458;2023-04-29T17:39:49;20.40;49.10
13268;DHT22;6702;47.068;15.458;2023-04-29T17:42:52;20.40;48.90
13268;DHT22;6702;47.068;15.458;2023-04-29T17:45:58;20.40;49.00
13268;DHT22;6702;47.068;15.458;2023-04-29T17:49:02;20.40;49.80
13268;DHT22;6702;47.068;15.458;2023-04-29T17:52:06;20.30;49.30
13268;DHT22;6702;47.068;15.458;2023-04-29T17:55:10;20.30;49.50
13268;DHT22;6702;47.068;15.458;2023-04-29T17:58:16;20.20;49.20
13268;DHT22;6702;47.068;15.458;2023-04-29T18:01:21;20.20;49.70
13268;DHT22;6702;47.068;15.458;2023-04-29T18:04:24;20.20;49.70
13268;DHT22;6702;47.068;15.458;2023-04-29T18:07:27;20.20;49.60
13268;DHT22;6702;47.068;15.458;2023-04-29T18:10:30;20.00;57.70
13268;DHT22;6702;47.068;15.458;2023-04-29T18:13:34;19.80;61.70
13268;DHT22;6702;47.068;15.458;2023-04-29T18:16:39;19.70;63.00
13268;DHT22;6702;47.068;15.458;2023-04-29T18:19:45;19.60;63.50
13268;DHT22;6702;47.068;15.458;2023-04-29T18:22:50;19.50;64.60
13268;DHT22;6702;47.068;15.458;2023-04-29T18:25:53;19.40;68.30
13268;DHT22;6702;47.068;15.458;2023-04-29T18:28:57;19.30;71.70
13268;DHT22;6702;47.068;15.458;2023-04-29T18:32:02;19.20;74.40
13268;DHT22;6702;47.068;15.458;2023-04-29T18:35:08;19.10;76.20
13268;DHT22;6702;47.068;15.458;2023-04-29T18:38:12;19.00;78.40
13268;DHT22;6702;47.068;15.458;2023-04-29T18:41:18;18.80;80.90
13268;DHT22;6702;47.068;15.458;2023-04-29T18:44:21;18.70;83.10
13268;DHT22;6702;47.068;15.458;2023-04-29T18:47:27;18.60;84.70
13268;DHT22;6702;47.068;15.458;2023-04-29T18:50:30;18.50;86.10
13268;DHT22;6702;47.068;15.458;2023-04-29T18:53:34;18.50;87.50
13268;DHT22;6702;47.068;15.458;2023-04-29T18:56:37;18.40;89.10
13268;DHT22;6702;47.068;15.458;2023-04-29T18:59:41;18.40;90.60
13268;DHT22;6702;47.068;15.458;2023-04-29T19:02:47;18.20;91.20
13268;DHT22;6702;47.068;15.458;2023-04-29T19:05:54;18.20;91.60
13268;DHT22;6702;47.068;15.458;2023-04-29T19:08:57;18.20;92.20
13268;DHT22;6702;47.068;15.458;2023-04-29T19:12:02;18.10;92.70
13268;DHT22;6702;47.068;15.458;2023-04-29T19:15:07;18.10;93.20
13268;DHT22;6702;47.068;15.458;2023-04-29T19:18:12;18.00;94.20
13268;DHT22;6702;47.068;15.458;2023-04-29T19:21:16;17.90;95.00
13268;DHT22;6702;47.068;15.458;2023-04-29T19:24:20;17.80;95.50
13268;DHT22;6702;47.068;15.458;2023-04-29T19:27:24;17.80;95.90
13268;DHT22;6702;47.068;15.458;2023-04-29T19:30:28;17.70;96.30
13268;DHT22;6702;47.068;15.458;2023-04-29T19:33:34;17.70;96.60
13268;DHT22;6702;47.068;15.458;2023-04-29T19:36:38;17.70;96.80